Time;durP1;ratioP1;P1;durP2;ratioP2;P2;SDS_P1;SDS_P2;PMS_P1;PMS_P2;Temp;Humidity;BMP_temperature;BMP_pressure;BME280_temperature;BME280_humidity;BME280_pressure;Samples;Min_cycle;Max_cycle;Signal;HPM_P1;HPM_P2
2023/09/30 00:01:59;;;;;;;4.67;1.90;;;17.70;99.90;;;;;;5027897;28;20213;-69
2023/09/30 00:04:27;;;;;;;5.27;2.17;;;17.70;99.90;;;;;;5027716;28;20217;-69
2023/09/30 00:06:54;;;;;;;6.87;2.10;;;17.80;99.90;;;;;;5026695;28;20237;-69
2023/09/30 00:09:21;;;;;;;2.70;1.70;;;17.70;99.90;;;;;;5027467;28;20678;-68
2023/09/30 00:11:50;;;;;;;3.80;1.93;;;17.80;99.90;;;;;;5027695;28;20271;-68
2023/09/30 00:14:18;;;;;;;8.60;2.17;;;17.60;99.90;;;;;;5027178;28;20291;-68
2023/09/30 00:16:45;;;;;;;5.93;2.30;;;17.40;99.90;;;;;;5028024;28;20223;-69
2023/09/30 00:19:11;;;;;;;6.77;2.30;;;17.30;99.90;;;;;;5027629;28;20205;-69
2023/09/30 00:21:38;;;;;;;6.90;2.57;;;17.30;99.90;;;;;;5027281;28;20969;-69
2023/09/30 00:24:06;;;;;;;5.17;2.30;;;17.30;99.90;;;;;;5027293;28;20217;-69
2023/09/30 00:26:33;;;;;;;6.70;2.40;;;17.30;99.90;;;;;;5027689;28;20221;-69
2023/09/30 00:29:04;;;;;;;4.40;2.50;;;17.30;99.90;;;;;;5027404;28;20232;-69
2023/09/30 00:31:31;;;;;;;6.30;2.33;;;17.10;99.90;;;;;;5027489;28;20200;-69
2023/09/30 00:33:58;;;;;;;5.27;2.23;;;17.00;99.90;;;;;;5027298;28;20296;-68
2023/09/30 00:36:24;;;;;;;7.10;2.37;;;17.00;99.90;;;;;;5025962;28;20751;-69
2023/09/30 00:38:52;;;;;;;6.70;2.60;;;17.00;99.90;;;;;;5007934;28;20747;-70
2023/09/30 00:41:19;;;;;;;5.37;2.97;;;17.00;99.90;;;;;;5008018;28;20656;-69
2023/09/30 00:43:47;;;;;;;5.93;2.50;;;16.90;99.90;;;;;;5026382;28;20704;-70
2023/09/30 00:46:26;;;;;;;4.07;2.60;;;17.00;99.90;;;;;;5013937;28;20310;-70
2023/09/30 00:48:54;;;;;;;5.27;2.80;;;17.10;99.90;;;;;;5007814;28;20248;-70
2023/09/30 00:51:21;;;;;;;6.83;2.53;;;17.00;99.90;;;;;;5007567;28;20308;-70
2023/09/30 00:53:48;;;;;;;6.37;2.60;;;16.90;99.90;;;;;;5011466;28;20228;-70
2023/09/30 00:56:15;;;;;;;7.93;2.60;;;17.00;99.90;;;;;;5026993;28;20219;-70
2023/09/30 00:58:42;;;;;;;6.93;2.70;;;17.00;99.90;;;;;;5026879;28;20295;-70
2023/09/30 01:01:10;;;;;;;9.10;3.10;;;17.10;99.90;;;;;;5026763;28;20307;-70
2023/09/30 01:03:39;;;;;;;6.07;2.53;;;17.00;99.90;;;;;;5026983;28;20300;-70
2023/09/30 01:06:06;;;;;;;9.23;3.00;;;17.00;99.90;;;;;;5026352;28;20209;-70
2023/09/30 01:08:34;;;;;;;7.20;2.77;;;17.00;99.90;;;;;;5026334;28;20761;-71
2023/09/30 01:11:01;;;;;;;6.47;2.60;;;17.10;99.90;;;;;;5027139;28;20215;-70
2023/09/30 01:13:33;;;;;;;7.53;3.03;;;17.10;99.90;;;;;;5026788;28;20671;-70
2023/09/30 01:16:03;;;;;;;5.97;2.73;;;17.20;99.90;;;;;;5026525;28;20267;-70
2023/09/30 01:18:30;;;;;;;10.27;3.10;;;17.10;99.90;;;;;;5025659;28;20653;-70
2023/09/30 01:20:59;;;;;;;5.90;2.60;;;17.20;99.90;;;;;;5026434;28;20196;-71
2023/09/30 01:23:29;;;;;;;9.63;3.10;;;17.10;99.90;;;;;;5026588;28;20291;-70
2023/09/30 01:25:55;;;;;;;8.00;3.10;;;17.20;99.90;;;;;;5026690;28;20235;-71
2023/09/30 01:28:22;;;;;;;6.27;3.17;;;17.00;99.90;;;;;;5006571;28;20311;-71
2023/09/30 01:30:51;;;;;;;9.00;3.17;;;16.70;99.90;;;;;;5018295;28;20228;-70
2023/09/30 01:33:18;;;;;;;9.43;2.90;;;16.60;99.90;;;;;;5025639;28;20677;-72
2023/09/30 01:35:45;;;;;;;12.47;3.57;;;16.40;99.90;;;;;;5025959;28;20228;-71
2023/09/30 01:38:12;;;;;;;7.80;3.00;;;16.30;99.90;;;;;;5025843;28;20292;-71
2023/09/30 01:40:42;;;;;;;5.63;2.60;;;16.30;99.90;;;;;;5026317;28;20404;-70
2023/09/30 01:43:09;;;;;;;6.40;2.90;;;16.30;99.90;;;;;;5026235;28;20240;-71
2023/09/30 01:45:36;;;;;;;8.43;3.10;;;16.30;99.90;;;;;;5025934;28;20205;-70
2023/09/30 01:48:03;;;;;;;6.97;3.20;;;16.40;99.90;;;;;;5026268;28;20229;-70
2023/09/30 01:50:31;;;;;;;5.80;2.80;;;16.50;99.90;;;;;;5026430;28;20323;-70
2023/09/30 01:52:58;;;;;;;6.23;3.07;;;16.40;99.90;;;;;;5026174;28;20212;-71
2023/09/30 01:55:25;;;;;;;6.77;2.80;;;16.30;99.90;;;;;;5025580;28;20220;-70
2023/09/30 01:57:53;;;;;;;8.20;2.53;;;16.20;99.90;;;;;;5008398;28;20304;-70
2023/09/30 02:00:20;;;;;;;5.17;3.00;;;15.90;99.90;;;;;;5006003;28;20298;-71
2023/09/30 02:02:47;;;;;;;6.47;2.97;;;15.70;99.90;;;;;;5006127;28;21014;-71
2023/09/30 02:05:14;;;;;;;5.50;2.80;;;15.70;99.90;;;;;;5020597;28;20319;-71
2023/09/30 02:07:40;;;;;;;5.93;2.70;;;15.60;99.90;;;;;;5025487;28;20680;-70
2023/09/30 02:10:09;;;;;;;6.00;2.80;;;15.60;99.90;;;;;;5025566;28;20797;-70
2023/09/30 02:12:36;;;;;;;4.93;3.07;;;15.60;99.90;;;;;;5025477;28;20213;-70
2023/09/30 02:15:07;;;;;;;6.97;3.20;;;15.60;99.90;;;;;;5025260;28;20680;-69
2023/09/30 02:17:34;;;;;;;8.57;3.10;;;15.60;99.90;;;;;;5025614;28;20240;-69
2023/09/30 02:20:06;;;;;;;7.97;2.67;;;15.60;99.90;;;;;;5025397;28;20205;-69
2023/09/30 02:22:34;;;;;;;8.90;2.70;;;15.50;99.90;;;;;;5025520;28;20201;-70
2023/09/30 02:25:00;;;;;;;4.90;2.50;;;15.50;99.90;;;;;;5025367;28;20685;-69
2023/09/30 02:27:28;;;;;;;8.27;3.10;;;15.40;99.90;;;;;;5025386;28;20220;-70
2023/09/30 02:29:55;;;;;;;6.90;2.97;;;15.40;99.90;;;;;;5024837;28;20236;-70
2023/09/30 02:32:23;;;;;;;7.27;3.03;;;15.50;99.90;;;;;;5025262;28;20259;-70
2023/09/30 02:34:51;;;;;;;8.37;3.20;;;15.60;99.90;;;;;;5025211;28;20307;-70
2023/09/30 02:37:18;;;;;;;10.87;2.93;;;15.50;99.90;;;;;;5025147;28;20208;-70
2023/09/30 02:39:46;;;;;;;6.57;2.83;;;15.60;99.90;;;;;;5025375;28;20296;-70
2023/09/30 02:42:12;;;;;;;7.83;3.30;;;15.50;99.90;;;;;;5025302;28;20212;-70
2023/09/30 02:44:39;;;;;;;8.87;3.30;;;15.50;99.90;;;;;;5025356;28;20215;-70
2023/09/30 02:47:06;;;;;;;7.80;2.93;;;15.20;99.90;;;;;;5023333;28;20663;-71
2023/09/30 02:49:35;;;;;;;6.37;3.00;;;15.20;99.90;;;;;;5020979;28;20243;-71
2023/09/30 02:52:02;;;;;;;8.53;3.03;;;15.20;99.90;;;;;;5025539;28;20303;-71
2023/09/30 02:54:30;;;;;;;6.17;2.90;;;15.00;99.90;;;;;;5025380;28;20323;-71
2023/09/30 02:56:57;;;;;;;5.57;2.70;;;15.00;99.90;;;;;;5025054;28;20208;-71
2023/09/30 02:59:24;;;;;;;6.93;2.80;;;15.20;99.90;;;;;;5024594;28;20299;-71
2023/09/30 03:01:51;;;;;;;8.87;3.10;;;15.30;99.90;;;;;;5024981;28;20295;-71
2023/09/30 03:04:19;;;;;;;6.90;3.20;;;15.30;99.90;;;;;;5025101;28;20208;-71
2023/09/30 03:06:48;;;;;;;7.33;2.90;;;15.30;99.90;;;;;;5024725;28;20236;-72
2023/09/30 03:09:15;;;;;;;5.37;2.80;;;15.10;99.90;;;;;;5025080;28;20609;-71
2023/09/30 03:11:43;;;;;;;8.03;3.20;;;14.90;99.90;;;;;;5025061;28;20883;-70
2023/09/30 03:14:11;;;;;;;8.07;2.83;;;14.90;99.90;;;;;;5024779;28;20201;-70
2023/09/30 03:16:38;;;;;;;8.73;3.00;;;14.90;99.90;;;;;;5024978;28;20216;-70
2023/09/30 03:19:08;;;;;;;7.17;2.90;;;15.00;99.90;;;;;;5024275;28;20203;-71
2023/09/30 03:21:36;;;;;;;8.20;3.20;;;15.20;99.90;;;;;;5024924;28;20671;-71
2023/09/30 03:24:05;;;;;;;7.50;2.83;;;15.20;99.90;;;;;;5025224;28;20205;-71
2023/09/30 03:26:35;;;;;;;8.07;3.07;;;15.30;99.90;;;;;;5025358;28;20209;-71
2023/09/30 03:29:03;;;;;;;8.43;3.07;;;15.30;99.90;;;;;;5024938;28;20291;-71
2023/09/30 03:31:30;;;;;;;4.80;2.47;;;15.40;99.90;;;;;;5024307;28;20856;-71
2023/09/30 03:33:57;;;;;;;10.57;3.70;;;15.60;99.90;;;;;;5019993;28;20553;-71
2023/09/30 03:36:25;;;;;;;5.20;3.00;;;15.60;99.90;;;;;;5004937;28;20964;-71
2023/09/30 03:38:54;;;;;;;8.23;2.90;;;15.40;99.90;;;;;;5007210;28;20645;-70
2023/09/30 03:41:23;;;;;;;5.50;3.00;;;15.30;99.90;;;;;;5025120;28;20212;-70
2023/09/30 03:43:50;;;;;;;6.67;2.70;;;15.30;99.90;;;;;;5028533;28;20232;-70
2023/09/30 03:46:17;;;;;;;10.87;3.40;;;15.20;99.90;;;;;;5028566;28;20279;-70
2023/09/30 03:48:44;;;;;;;9.60;3.80;;;15.00;99.90;;;;;;5028205;28;20351;-70
2023/09/30 03:51:13;;;;;;;7.63;3.23;;;14.80;99.90;;;;;;5028135;28;20236;-70
2023/09/30 03:53:40;;;;;;;8.87;3.23;;;14.90;99.90;;;;;;5028430;28;20205;-71
2023/09/30 03:56:07;;;;;;;10.03;3.90;;;14.80;99.90;;;;;;5026130;28;20760;-70
2023/09/30 03:58:38;;;;;;;10.37;3.53;;;14.70;99.90;;;;;;5028272;28;20213;-70
2023/09/30 04:01:05;;;;;;;7.67;3.30;;;14.70;99.90;;;;;;5008150;28;20209;-70
2023/09/30 04:03:33;;;;;;;7.67;3.20;;;14.80;99.90;;;;;;5018180;28;20219;-70
2023/09/30 04:06:00;;;;;;;10.27;3.70;;;14.90;99.90;;;;;;5028361;28;20243;-71
2023/09/30 04:08:27;;;;;;;9.53;3.43;;;14.70;99.90;;;;;;5027635;28;20264;-71
2023/09/30 04:10:54;;;;;;;9.17;3.03;;;14.60;99.90;;;;;;5028074;28;20232;-72
2023/09/30 04:13:21;;;;;;;10.47;3.23;;;14.80;99.90;;;;;;5027577;28;20300;-71
2023/09/30 04:15:50;;;;;;;6.87;3.30;;;14.70;99.90;;;;;;5027847;28;20424;-71
2023/09/30 04:18:20;;;;;;;8.10;3.30;;;14.60;99.90;;;;;;5027883;28;20200;-72
2023/09/30 04:20:46;;;;;;;11.57;3.80;;;14.50;99.90;;;;;;5028076;28;20223;-72
2023/09/30 04:23:16;;;;;;;8.73;3.87;;;14.60;99.90;;;;;;5027645;28;20312;-72
2023/09/30 04:25:44;;;;;;;12.03;3.37;;;14.60;99.90;;;;;;5027278;28;20204;-72
2023/09/30 04:28:11;;;;;;;10.13;3.47;;;14.60;99.90;;;;;;5008409;28;20754;-71
2023/09/30 04:30:38;;;;;;;7.80;3.40;;;14.70;99.90;;;;;;5027001;28;20344;-71
2023/09/30 04:33:07;;;;;;;8.60;3.60;;;14.80;99.90;;;;;;5027314;28;20306;-70
2023/09/30 04:35:35;;;;;;;8.00;3.10;;;14.90;99.90;;;;;;5027405;28;20706;-70
2023/09/30 04:38:04;;;;;;;7.40;3.10;;;15.00;99.90;;;;;;5019181;28;20205;-71
2023/09/30 04:40:32;;;;;;;10.37;3.10;;;15.00;99.90;;;;;;5025673;28;20706;-71
2023/09/30 04:42:59;;;;;;;7.57;3.50;;;14.80;99.90;;;;;;5027653;28;20259;-71
2023/09/30 04:45:27;;;;;;;7.60;3.30;;;15.00;99.90;;;;;;5026717;28;20315;-71
2023/09/30 04:47:56;;;;;;;8.37;3.43;;;15.00;99.90;;;;;;5027135;28;20317;-71
2023/09/30 04:50:24;;;;;;;6.90;3.80;;;15.10;99.90;;;;;;5026219;28;20307;-70
2023/09/30 04:52:52;;;;;;;6.43;3.30;;;15.10;99.90;;;;;;5021790;28;20285;-71
2023/09/30 04:55:19;;;;;;;8.33;3.10;;;15.00;99.90;;;;;;5007077;28;20209;-71
2023/09/30 04:57:47;;;;;;;10.97;3.23;;;14.90;99.90;;;;;;5023828;28;20212;-70
2023/09/30 05:00:15;;;;;;;8.33;3.60;;;14.90;99.90;;;;;;5026332;28;20286;-71
2023/09/30 05:02:44;;;;;;;9.30;3.00;;;14.80;99.90;;;;;;5026845;28;20296;-71
2023/09/30 05:05:11;;;;;;;8.53;3.50;;;14.70;99.90;;;;;;5026418;28;20201;-70
2023/09/30 05:07:39;;;;;;;7.60;3.10;;;14.50;99.90;;;;;;5026085;28;20328;-70
2023/09/30 05:10:10;;;;;;;8.87;3.77;;;14.50;99.90;;;;;;5025999;28;20231;-70
2023/09/30 05:12:40;;;;;;;9.17;3.40;;;14.30;99.90;;;;;;5026356;28;20209;-70
2023/09/30 05:15:08;;;;;;;9.87;3.43;;;14.30;99.90;;;;;;5026376;28;20208;-70
2023/09/30 05:17:35;;;;;;;9.83;3.20;;;14.30;99.90;;;;;;5026569;28;20289;-70
2023/09/30 05:20:06;;;;;;;9.83;3.40;;;14.40;99.90;;;;;;5026289;28;20649;-71
2023/09/30 05:22:33;;;;;;;7.60;3.30;;;14.50;99.90;;;;;;5026096;28;20753;-70
2023/09/30 05:25:02;;;;;;;9.83;3.70;;;14.20;99.90;;;;;;5025879;28;20208;-70
2023/09/30 05:27:29;;;;;;;8.53;3.77;;;14.10;99.90;;;;;;5025115;28;20216;-70
2023/09/30 05:29:56;;;;;;;10.10;3.90;;;13.90;99.90;;;;;;5026339;28;20284;-71
2023/09/30 05:32:23;;;;;;;9.23;3.97;;;13.80;99.90;;;;;;5026025;28;20221;-70
2023/09/30 05:34:50;;;;;;;6.67;3.57;;;14.00;99.90;;;;;;5026331;28;20205;-70
2023/09/30 05:37:17;;;;;;;7.93;3.83;;;14.00;99.90;;;;;;5025855;28;20629;-70
2023/09/30 05:39:44;;;;;;;7.27;3.40;;;14.10;99.90;;;;;;5025518;28;20292;-70
2023/09/30 05:42:13;;;;;;;11.23;3.83;;;14.20;99.90;;;;;;5025533;28;20243;-70
2023/09/30 05:44:39;;;;;;;9.60;3.53;;;14.10;99.90;;;;;;5025619;28;20689;-70
2023/09/30 05:47:06;;;;;;;10.57;3.57;;;14.00;99.90;;;;;;5025504;28;20316;-70
2023/09/30 05:49:33;;;;;;;6.40;3.27;;;13.80;99.90;;;;;;5018998;28;20914;-70
2023/09/30 05:52:00;;;;;;;9.73;3.63;;;13.80;99.90;;;;;;5025886;28;20977;-70
2023/09/30 05:54:28;;;;;;;10.70;3.63;;;13.90;99.90;;;;;;5025629;28;20291;-70
2023/09/30 05:56:56;;;;;;;10.10;3.73;;;13.90;99.90;;;;;;5025290;28;20768;-70
2023/09/30 05:59:28;;;;;;;7.97;3.13;;;14.00;99.90;;;;;;5024139;28;20220;-70
2023/09/30 06:01:54;;;;;;;9.77;3.20;;;14.00;99.90;;;;;;5025139;28;20233;-69
2023/09/30 06:04:22;;;;;;;11.77;3.53;;;14.10;99.90;;;;;;5025633;28;20239;-70
2023/09/30 06:06:49;;;;;;;6.30;3.17;;;14.10;99.90;;;;;;5025841;28;20325;-70
2023/09/30 06:09:16;;;;;;;10.23;3.50;;;14.10;99.90;;;;;;5025736;28;20208;-70
2023/09/30 06:11:43;;;;;;;10.70;3.40;;;14.00;99.90;;;;;;5025591;28;20593;-70
2023/09/30 06:14:10;;;;;;;11.23;3.57;;;14.00;99.90;;;;;;5025510;28;21201;-70
2023/09/30 06:16:38;;;;;;;10.90;3.63;;;13.90;99.90;;;;;;5025967;28;20324;-68
2023/09/30 06:19:05;;;;;;;10.17;3.50;;;14.00;99.90;;;;;;5025925;28;20212;-68
2023/09/30 06:21:34;;;;;;;7.03;3.33;;;14.00;99.90;;;;;;5025540;28;20224;-68
2023/09/30 06:24:01;;;;;;;8.83;3.77;;;14.00;99.90;;;;;;5020470;28;20197;-70
2023/09/30 06:26:29;;;;;;;9.77;3.40;;;13.90;99.90;;;;;;5009347;28;20300;-70
2023/09/30 06:28:56;;;;;;;8.13;3.47;;;13.90;99.90;;;;;;5023438;28;20749;-70
2023/09/30 06:31:24;;;;;;;8.00;3.57;;;13.90;99.90;;;;;;5023485;28;20208;-70
2023/09/30 06:33:52;;;;;;;12.03;4.07;;;13.90;99.90;;;;;;5023780;28;20211;-70
2023/09/30 06:36:20;;;;;;;14.00;3.87;;;13.90;99.90;;;;;;5023269;28;20219;-70
2023/09/30 06:38:50;;;;;;;12.70;4.23;;;14.00;99.90;;;;;;5023993;28;20215;-71
2023/09/30 06:41:17;;;;;;;9.63;3.40;;;13.90;99.90;;;;;;5024096;28;20232;-70
2023/09/30 06:43:45;;;;;;;11.27;3.50;;;14.10;99.90;;;;;;5021337;28;20213;-70
2023/09/30 06:46:12;;;;;;;7.10;3.50;;;14.10;99.90;;;;;;5022624;28;20227;-70
2023/09/30 06:48:41;;;;;;;7.83;3.47;;;14.10;99.90;;;;;;5022936;28;20209;-70
2023/09/30 06:51:14;;;;;;;8.77;3.90;;;14.20;99.90;;;;;;5019997;28;20223;-70
2023/09/30 06:53:41;;;;;;;10.53;3.43;;;14.10;99.90;;;;;;5015791;28;20211;-70
2023/09/30 06:56:08;;;;;;;10.53;3.63;;;14.10;99.90;;;;;;5023217;28;20337;-70
2023/09/30 06:58:35;;;;;;;9.37;3.60;;;14.20;99.90;;;;;;5016028;28;20368;-70
2023/09/30 07:01:02;;;;;;;10.60;3.60;;;14.20;99.90;;;;;;5022785;28;20910;-70
2023/09/30 07:03:30;;;;;;;10.20;3.10;;;14.20;99.90;;;;;;5023148;28;20288;-70
2023/09/30 07:06:00;;;;;;;7.50;3.70;;;14.20;99.90;;;;;;5023329;28;20208;-70
2023/09/30 07:08:29;;;;;;;9.20;3.83;;;14.30;99.90;;;;;;5023054;28;20240;-70
2023/09/30 07:10:56;;;;;;;10.33;3.70;;;14.30;99.90;;;;;;5023055;28;20323;-70
2023/09/30 07:13:23;;;;;;;9.43;3.57;;;14.60;99.90;;;;;;5022176;28;20679;-70
2023/09/30 07:15:50;;;;;;;10.93;3.53;;;14.70;99.90;;;;;;5022940;28;20211;-70
2023/09/30 07:18:18;;;;;;;9.73;3.33;;;14.60;99.90;;;;;;5026230;28;20661;-70
2023/09/30 07:20:45;;;;;;;12.10;4.37;;;14.60;99.90;;;;;;5025754;28;20205;-70
2023/09/30 07:23:13;;;;;;;12.03;3.23;;;14.60;99.90;;;;;;5028178;28;20303;-70
2023/09/30 07:25:42;;;;;;;8.50;3.23;;;14.40;99.90;;;;;;5025535;28;20212;-70
2023/09/30 07:28:11;;;;;;;14.50;3.63;;;14.40;99.90;;;;;;5028222;28;20205;-70
2023/09/30 07:30:39;;;;;;;10.87;4.37;;;14.60;99.90;;;;;;5028070;28;20308;-70
2023/09/30 07:33:06;;;;;;;12.00;4.63;;;14.60;99.90;;;;;;5028309;28;20209;-70
2023/09/30 07:35:33;;;;;;;10.77;3.47;;;14.60;99.90;;;;;;5028516;28;20781;-70
2023/09/30 07:38:00;;;;;;;11.00;3.83;;;14.60;99.90;;;;;;5023703;28;20283;-69
2023/09/30 07:40:27;;;;;;;9.53;3.10;;;14.60;99.90;;;;;;5019708;28;20230;-77
2023/09/30 07:42:56;;;;;;;9.87;3.43;;;14.50;99.90;;;;;;5021110;28;20233;-77
2023/09/30 07:45:22;;;;;;;7.80;2.83;;;14.60;99.90;;;;;;5019259;28;20655;-70
2023/09/30 07:47:51;;;;;;;10.73;3.63;;;14.70;99.90;;;;;;5026218;28;20799;-69
2023/09/30 07:50:18;;;;;;;9.60;3.10;;;14.90;99.90;;;;;;5018151;28;20679;-69
2023/09/30 07:52:45;;;;;;;9.20;3.43;;;14.90;99.90;;;;;;5009639;28;20311;-69
2023/09/30 07:55:12;;;;;;;7.93;3.30;;;14.80;99.90;;;;;;5020299;28;20731;-69
2023/09/30 07:57:42;;;;;;;11.53;3.30;;;14.70;99.90;;;;;;5016701;28;20308;-69
2023/09/30 08:00:15;;;;;;;13.00;3.77;;;14.70;99.90;;;;;;5016905;28;20217;-69
2023/09/30 08:02:42;;;;;;;9.97;3.23;;;14.70;99.90;;;;;;5014903;28;20226;-69
2023/09/30 08:05:10;;;;;;;13.33;3.70;;;14.70;99.90;;;;;;5020122;28;20208;-69
2023/09/30 08:07:37;;;;;;;7.20;3.03;;;14.80;99.90;;;;;;5026104;28;20276;-69
2023/09/30 08:10:06;;;;;;;11.87;3.57;;;14.80;99.90;;;;;;5023403;28;20208;-69
2023/09/30 08:12:33;;;;;;;13.53;3.50;;;14.80;99.90;;;;;;5014789;28;20209;-70
2023/09/30 08:15:03;;;;;;;11.60;3.70;;;14.80;99.90;;;;;;5021213;28;20327;-69
2023/09/30 08:17:31;;;;;;;11.50;3.93;;;15.00;99.90;;;;;;5017094;28;20217;-69
2023/09/30 08:19:58;;;;;;;11.53;3.10;;;15.10;99.90;;;;;;5024247;28;20292;-70
2023/09/30 08:22:27;;;;;;;9.97;3.17;;;15.20;99.90;;;;;;5026731;28;20323;-69
2023/09/30 08:24:54;;;;;;;8.07;3.00;;;15.30;99.90;;;;;;5026689;28;20290;-69
2023/09/30 08:27:21;;;;;;;9.97;3.60;;;15.60;99.90;;;;;;5013194;28;20292;-69
2023/09/30 08:29:48;;;;;;;9.00;3.83;;;15.60;99.90;;;;;;5006914;28;20877;-68
2023/09/30 08:32:15;;;;;;;9.27;3.03;;;15.70;99.90;;;;;;5014886;28;20663;-69
2023/09/30 08:34:43;;;;;;;13.77;3.63;;;15.50;99.90;;;;;;5026686;28;20675;-69
2023/09/30 08:37:10;;;;;;;10.67;3.50;;;15.60;99.90;;;;;;5027436;28;20221;-69
2023/09/30 08:39:40;;;;;;;7.13;2.93;;;15.60;99.90;;;;;;5027538;28;20295;-69
2023/09/30 08:42:10;;;;;;;5.70;2.80;;;15.60;99.90;;;;;;5027069;28;20283;-69
2023/09/30 08:44:39;;;;;;;9.67;3.20;;;15.70;99.90;;;;;;5027168;28;20205;-69
2023/09/30 08:47:07;;;;;;;9.27;3.10;;;15.80;99.90;;;;;;5027403;28;20225;-69
2023/09/30 08:49:36;;;;;;;8.97;2.87;;;15.70;99.90;;;;;;5027021;28;20213;-70
2023/09/30 08:52:06;;;;;;;12.37;3.60;;;15.70;99.90;;;;;;5027308;28;20205;-69
2023/09/30 08:54:33;;;;;;;13.60;4.10;;;15.80;99.90;;;;;;5027104;28;20295;-70
2023/09/30 08:57:04;;;;;;;11.17;3.60;;;16.00;99.90;;;;;;5027183;28;20702;-70
2023/09/30 08:59:33;;;;;;;8.60;3.00;;;16.20;99.90;;;;;;5027293;28;20288;-69
2023/09/30 09:02:00;;;;;;;10.67;3.37;;;16.40;99.90;;;;;;5027387;28;20280;-69
2023/09/30 09:04:28;;;;;;;12.67;3.70;;;16.60;99.90;;;;;;5026985;28;20297;-68
2023/09/30 09:06:55;;;;;;;14.53;3.37;;;16.70;99.90;;;;;;5026266;28;20255;-69
2023/09/30 09:09:23;;;;;;;15.87;5.10;;;16.90;99.90;;;;;;5026652;28;20682;-69
2023/09/30 09:11:52;;;;;;;12.67;3.60;;;16.90;99.90;;;;;;5026544;28;20866;-69
2023/09/30 09:14:19;;;;;;;10.20;3.13;;;17.00;99.90;;;;;;5026105;28;20205;-69
2023/09/30 09:16:53;;;;;;;13.27;3.90;;;17.10;99.90;;;;;;5026590;28;20312;-69
2023/09/30 09:19:21;;;;;;;9.63;3.40;;;17.30;99.90;;;;;;5026444;28;20223;-69
2023/09/30 09:21:58;;;;;;;9.03;3.00;;;17.30;99.90;;;;;;5026811;28;20224;-69
2023/09/30 09:24:31;;;;;;;9.40;2.80;;;17.30;99.90;;;;;;5025894;28;20730;-69
2023/09/30 09:27:08;;;;;;;9.83;3.23;;;17.20;99.90;;;;;;5026491;28;20209;-69
2023/09/30 09:29:36;;;;;;;12.00;3.37;;;17.40;99.90;;;;;;5025630;28;20327;-70
2023/09/30 09:32:13;;;;;;;8.77;3.23;;;17.50;99.90;;;;;;5026135;28;20303;-69
2023/09/30 09:34:41;;;;;;;10.20;3.00;;;17.60;99.90;;;;;;5026682;28;20307;-70
2023/09/30 09:37:15;;;;;;;10.90;3.53;;;17.70;99.90;;;;;;5026665;28;20208;-70
2023/09/30 09:39:52;;;;;;;8.97;3.03;;;17.80;99.90;;;;;;5025891;28;20233;-69
2023/09/30 09:42:26;;;;;;;6.77;2.73;;;17.80;99.90;;;;;;5026609;28;20228;-69
2023/09/30 09:44:56;;;;;;;12.60;3.77;;;18.00;99.90;;;;;;5026082;28;20295;-69
2023/09/30 09:47:24;;;;;;;7.20;2.87;;;18.00;99.90;;;;;;5026329;28;20408;-68
2023/09/30 09:49:52;;;;;;;11.47;3.57;;;18.20;99.90;;;;;;5025919;28;20300;-69
2023/09/30 09:52:20;;;;;;;8.13;3.37;;;18.40;99.90;;;;;;5026058;28;20213;-69
2023/09/30 09:54:47;;;;;;;11.83;3.30;;;18.60;99.90;;;;;;5026203;28;20203;-69
2023/09/30 09:57:18;;;;;;;10.03;3.03;;;18.60;99.90;;;;;;5013444;28;20272;-69
2023/09/30 09:59:47;;;;;;;9.17;3.40;;;18.70;99.90;;;;;;5014131;28;20197;-69
2023/09/30 10:02:16;;;;;;;9.03;2.87;;;18.80;99.90;;;;;;5025657;28;20289;-69
2023/09/30 10:04:44;;;;;;;9.70;2.83;;;18.70;99.90;;;;;;5025748;28;20248;-69
2023/09/30 10:07:15;;;;;;;7.07;3.00;;;18.70;99.90;;;;;;5025154;28;20248;-69
2023/09/30 10:09:48;;;;;;;9.77;2.70;;;18.70;99.90;;;;;;5025920;28;20189;-70
2023/09/30 10:12:17;;;;;;;9.27;3.10;;;18.70;99.90;;;;;;5025599;28;20303;-69
2023/09/30 10:14:45;;;;;;;8.40;2.53;;;18.90;99.90;;;;;;5024898;28;20675;-69
2023/09/30 10:17:12;;;;;;;7.10;2.70;;;19.20;99.90;;;;;;5025467;28;20260;-69
2023/09/30 10:20:07;;;;;;;9.07;2.70;;;19.20;99.90;;;;;;5011671;28;20218;-69
2023/09/30 10:22:34;;;;;;;7.50;2.73;;;19.20;99.90;;;;;;5005704;28;20316;-69
2023/09/30 10:25:05;;;;;;;8.07;2.57;;;19.30;99.90;;;;;;5010426;28;20319;-69
2023/09/30 10:27:38;;;;;;;7.80;3.20;;;19.30;99.90;;;;;;5010778;28;20210;-69
2023/09/30 10:30:16;;;;;;;6.10;2.93;;;19.30;99.90;;;;;;5007853;28;20229;-69
2023/09/30 10:33:09;;;;;;;7.93;2.67;;;19.40;99.90;;;;;;5025357;28;20284;-69
2023/09/30 10:36:03;;;;;;;11.03;2.60;;;19.40;99.90;;;;;;5025406;28;20209;-69
2023/09/30 10:38:43;;;;;;;13.93;2.80;;;19.10;99.90;;;;;;5005637;28;20209;-69
2023/09/30 10:41:11;;;;;;;6.10;2.50;;;19.10;99.90;;;;;;5005201;28;20197;-69
2023/09/30 10:43:41;;;;;;;8.00;2.77;;;19.30;99.90;;;;;;5017806;28;20737;-69
2023/09/30 10:46:36;;;;;;;9.57;5.30;;;19.50;99.90;;;;;;5024724;28;20298;-69
2023/09/30 10:49:35;;;;;;;6.70;2.90;;;19.80;99.90;;;;;;5025358;28;20205;-69
2023/09/30 10:52:02;;;;;;;9.43;2.30;;;19.90;99.90;;;;;;5028218;28;20282;-69
2023/09/30 10:54:31;;;;;;;9.40;2.63;;;19.70;99.90;;;;;;5029196;28;20213;-69
2023/09/30 10:56:59;;;;;;;6.43;2.80;;;19.50;99.90;;;;;;5018997;28;20682;-69
2023/09/30 10:59:30;;;;;;;7.10;2.60;;;19.50;99.90;;;;;;5028769;28;20219;-69
2023/09/30 11:01:57;;;;;;;9.37;2.70;;;19.50;99.90;;;;;;5029333;28;20374;-69
2023/09/30 11:04:26;;;;;;;6.40;2.73;;;19.20;99.90;;;;;;5029302;28;20208;-69
2023/09/30 11:06:53;;;;;;;10.33;2.87;;;19.00;99.90;;;;;;5028743;28;20232;-69
2023/09/30 11:09:21;;;;;;;5.00;2.50;;;19.20;99.90;;;;;;5029219;28;20517;-68
2023/09/30 11:11:49;;;;;;;5.63;2.40;;;19.30;99.90;;;;;;5028779;28;20737;-69
2023/09/30 11:14:21;;;;;;;7.37;2.10;;;19.50;99.90;;;;;;5028932;28;20232;-69
2023/09/30 11:16:50;;;;;;;7.80;2.30;;;19.50;99.90;;;;;;5028372;28;20247;-69
2023/09/30 11:19:20;;;;;;;7.23;2.13;;;19.30;99.90;;;;;;5028652;28;20288;-69
2023/09/30 11:21:47;;;;;;;7.50;2.53;;;19.10;99.90;;;;;;5028443;28;20804;-69
2023/09/30 11:24:15;;;;;;;5.80;2.50;;;19.00;99.90;;;;;;5028625;28;20307;-69
2023/09/30 11:26:42;;;;;;;9.67;2.63;;;19.00;99.90;;;;;;5028259;28;20396;-69
2023/09/30 11:29:11;;;;;;;6.13;2.17;;;19.10;99.90;;;;;;5028233;28;20240;-69
2023/09/30 11:31:42;;;;;;;7.87;2.37;;;19.10;99.90;;;;;;5021395;28;20336;-69
2023/09/30 11:34:11;;;;;;;5.27;2.50;;;19.00;99.90;;;;;;5019617;28;20205;-69
2023/09/30 11:36:39;;;;;;;6.50;2.17;;;19.00;99.90;;;;;;5024064;28;20208;-69
2023/09/30 11:39:09;;;;;;;7.10;2.60;;;19.20;99.90;;;;;;5010995;28;20216;-69
2023/09/30 11:41:38;;;;;;;6.03;2.33;;;19.50;99.90;;;;;;5018097;28;20217;-69
2023/09/30 11:44:07;;;;;;;7.80;3.00;;;19.60;99.90;;;;;;5026370;28;20240;-69
2023/09/30 11:46:49;;;;;;;7.30;2.47;;;19.50;99.90;;;;;;5020820;28;20234;-70
2023/09/30 11:49:27;;;;;;;8.27;2.50;;;19.70;99.90;;;;;;5007423;28;20197;-69
2023/09/30 11:51:55;;;;;;;6.70;2.53;;;19.90;99.90;;;;;;5012707;28;20200;-69
2023/09/30 11:54:22;;;;;;;8.13;3.20;;;20.20;99.90;;;;;;5023752;28;20205;-69
2023/09/30 11:56:50;;;;;;;5.57;2.67;;;20.10;99.90;;;;;;5020074;28;20204;-69
2023/09/30 11:59:19;;;;;;;5.60;2.93;;;20.10;99.90;;;;;;5013862;28;20698;-69
2023/09/30 12:01:48;;;;;;;5.23;2.20;;;20.30;99.90;;;;;;5026033;28;20216;-69
2023/09/30 12:04:17;;;;;;;6.83;2.57;;;20.40;99.90;;;;;;5025072;28;20984;-69
2023/09/30 12:06:45;;;;;;;7.23;2.23;;;20.60;99.90;;;;;;5025653;28;20241;-69
2023/09/30 12:09:14;;;;;;;7.20;2.43;;;20.70;99.90;;;;;;5024692;28;20303;-68
2023/09/30 12:11:43;;;;;;;6.90;2.33;;;21.00;99.90;;;;;;5016784;28;20267;-69
2023/09/30 12:14:11;;;;;;;7.43;2.40;;;21.20;99.90;;;;;;5016558;28;20212;-69
2023/09/30 12:16:38;;;;;;;11.07;2.42;;;21.30;99.90;;;;;;5016980;28;20565;-69
2023/09/30 12:19:06;;;;;;;3.83;2.10;;;21.40;99.90;;;;;;5023955;28;20216;-71
2023/09/30 12:21:34;;;;;;;4.07;2.15;;;21.10;99.90;;;;;;5027075;28;20205;-69
2023/09/30 12:24:02;;;;;;;6.20;2.20;;;21.00;99.90;;;;;;5026169;28;20268;-69
2023/09/30 12:26:29;;;;;;;4.65;2.22;;;21.10;99.90;;;;;;5020688;28;20209;-70
2023/09/30 12:28:57;;;;;;;6.10;2.28;;;21.20;99.90;;;;;;5007733;28;20205;-69
2023/09/30 12:31:24;;;;;;;5.77;1.90;;;20.80;99.90;;;;;;5007154;28;20209;-69
2023/09/30 12:33:52;;;;;;;8.20;1.97;;;20.70;99.90;;;;;;5010548;28;20299;-69
2023/09/30 12:36:19;;;;;;;5.07;1.73;;;20.90;99.90;;;;;;5027271;28;20201;-69
2023/09/30 12:38:46;;;;;;;4.97;1.93;;;21.10;99.90;;;;;;5026966;28;20219;-69
2023/09/30 12:41:14;;;;;;;4.33;2.00;;;21.00;99.90;;;;;;5027165;28;20260;-69
2023/09/30 12:43:42;;;;;;;5.37;1.97;;;20.90;99.90;;;;;;5026669;28;20636;-69
2023/09/30 12:46:09;;;;;;;4.90;2.00;;;20.90;99.90;;;;;;5026608;28;20225;-69
2023/09/30 12:48:38;;;;;;;5.93;2.43;;;21.10;99.90;;;;;;5026558;28;20215;-69
2023/09/30 12:51:06;;;;;;;3.03;1.93;;;21.30;99.90;;;;;;5027050;28;20229;-69
2023/09/30 12:53:33;;;;;;;5.43;2.23;;;21.20;99.90;;;;;;5026989;28;20216;-70